Time;durP1;ratioP1;P1;durP2;ratioP2;P2;SDS_P1;SDS_P2;PMS_P1;PMS_P2;Temp;Humidity;BMP_temperature;BMP_pressure;BME280_temperature;BME280_humidity;BME280_pressure;Samples;Min_cycle;Max_cycle;Signal;HPM_P1;HPM_P2
2023/07/12 00:01:21;;;;;;;5.25;2.80;;;;;;;21.75;100.00;100409.31;4933537;29;20131;-76
2023/07/12 00:03:48;;;;;;;5.05;2.85;;;;;;;21.72;100.00;100415.97;4932401;29;20146;-75
2023/07/12 00:06:22;;;;;;;4.88;2.70;;;;;;;21.62;100.00;100414.56;4928913;29;20094;-75
2023/07/12 00:08:49;;;;;;;8.82;2.63;;;;;;;21.46;100.00;100412.38;4931674;29;20134;-77
2023/07/12 00:11:19;;;;;;;8.02;2.88;;;;;;;21.29;100.00;100421.94;4930229;29;20103;-74
2023/07/12 00:13:46;;;;;;;8.38;2.90;;;;;;;21.09;100.00;100413.50;4932825;29;20055;-76
2023/07/12 00:16:26;;;;;;;7.43;3.13;;;;;;;21.11;100.00;100431.53;4929351;29;20062;-76
2023/07/12 00:18:54;;;;;;;7.07;2.97;;;;;;;20.92;100.00;100435.91;4929822;29;20059;-75
2023/07/12 00:21:25;;;;;;;6.65;2.97;;;;;;;20.74;100.00;100441.84;4931318;29;20684;-74
2023/07/12 00:23:53;;;;;;;7.88;3.38;;;;;;;20.57;100.00;100442.88;4930532;29;20073;-74
2023/07/12 00:26:28;;;;;;;7.68;3.30;;;;;;;20.46;100.00;100446.34;4931599;29;20063;-74
2023/07/12 00:28:56;;;;;;;;;;;;;;;20.35;100.00;100453.88;4931560;29;20106;-75
2023/07/12 00:31:23;;;;;;;14.38;4.90;;;;;;;20.36;100.00;100438.47;4931816;29;19930;-74
2023/07/12 00:33:50;;;;;;;7.07;2.90;;;;;;;20.32;100.00;100435.84;4930352;29;20664;-74
2023/07/12 00:36:20;;;;;;;6.53;2.78;;;;;;;20.33;100.00;100445.88;4930894;29;20052;-75
2023/07/12 00:38:47;;;;;;;7.00;2.80;;;;;;;20.29;100.00;100436.84;4931563;29;20075;-74
2023/07/12 00:41:30;;;;;;;7.50;3.03;;;;;;;20.26;100.00;100431.41;4929724;29;20051;-75
2023/07/12 00:44:07;;;;;;;8.23;3.00;;;;;;;20.24;100.00;100450.84;4932262;29;20727;-74
2023/07/12 00:46:38;;;;;;;7.32;2.85;;;;;;;20.20;100.00;100439.75;4930807;29;20052;-74
2023/07/12 00:49:05;;;;;;;7.45;3.20;;;;;;;20.07;100.00;100446.97;4930390;29;20594;-76
2023/07/12 00:51:43;;;;;;;9.77;3.67;;;;;;;20.06;100.00;100451.84;4931907;29;20047;-75
2023/07/12 00:54:16;;;;;;;10.93;3.30;;;;;;;20.00;100.00;100439.69;4933487;29;20055;-75
2023/07/12 00:56:43;;;;;;;11.43;3.70;;;;;;;19.95;100.00;100437.56;4931541;29;20557;-75
2023/07/12 00:59:26;;;;;;;10.77;3.42;;;;;;;20.05;100.00;100438.22;4930870;29;20086;-76
2023/07/12 01:01:57;;;;;;;10.07;3.85;;;;;;;19.99;100.00;100440.19;4927210;29;20063;-75
2023/07/12 01:04:29;;;;;;;9.00;3.35;;;;;;;19.98;100.00;100449.94;4933028;29;20059;-76
2023/07/12 01:06:55;;;;;;;7.00;3.15;;;;;;;19.90;100.00;100446.72;4929731;29;20056;-75
2023/07/12 01:09:23;;;;;;;7.25;3.50;;;;;;;19.94;100.00;100440.88;4930258;29;20502;-75
2023/07/12 01:11:50;;;;;;;12.70;3.60;;;;;;;20.00;100.00;100445.34;4930821;29;20118;-75
2023/07/12 01:14:18;;;;;;;9.38;3.47;;;;;;;20.01;100.00;100446.13;4930351;29;20570;-74
2023/07/12 01:16:50;;;;;;;6.75;2.75;;;;;;;19.99;100.00;100440.97;4929668;29;20075;-74
2023/07/12 01:19:17;;;;;;;9.50;2.50;;;;;;;19.72;100.00;100444.09;4919608;29;20490;-75
2023/07/12 01:21:46;;;;;;;5.07;2.03;;;;;;;19.53;100.00;100440.72;4931147;29;20514;-74
2023/07/12 01:24:14;;;;;;;4.32;2.10;;;;;;;19.51;100.00;100431.19;4931173;29;20142;-76
2023/07/12 01:26:44;;;;;;;6.00;1.90;;;;;;;19.49;100.00;100419.59;4927036;29;20071;-75
2023/07/12 01:29:11;;;;;;;6.60;1.73;;;;;;;19.16;100.00;100413.31;4929278;29;20059;-75
2023/07/12 01:31:38;;;;;;;3.35;1.65;;;;;;;19.26;100.00;100414.78;4930052;29;20043;-75
2023/07/12 01:34:08;;;;;;;4.45;2.08;;;;;;;19.25;100.00;100416.84;4930441;29;20051;-75
2023/07/12 01:36:35;;;;;;;5.20;1.95;;;;;;;19.25;100.00;100405.56;4927876;29;20055;-75
2023/07/12 01:39:03;;;;;;;5.57;1.70;;;;;;;19.15;100.00;100406.13;4930491;29;20055;-75
2023/07/12 01:41:31;;;;;;;4.22;2.03;;;;;;;19.09;100.00;100402.44;4930650;29;20055;-73
2023/07/12 01:43:58;;;;;;;3.75;1.50;;;;;;;19.03;100.00;100410.78;4931252;29;20153;-75
2023/07/12 01:46:25;;;;;;;5.22;1.50;;;;;;;19.09;100.00;100439.06;4929602;29;20103;-75
2023/07/12 01:48:52;;;;;;;5.93;1.85;;;;;;;19.11;100.00;100459.84;4928349;29;20138;-75
2023/07/12 01:51:20;;;;;;;5.28;1.65;;;;;;;19.11;100.00;100459.84;4929066;29;20119;-75
2023/07/12 01:53:47;;;;;;;5.00;1.60;;;;;;;19.22;100.00;100490.28;4938536;29;20110;-75
2023/07/12 01:56:16;;;;;;;3.75;1.48;;;;;;;19.10;100.00;100497.75;4930847;29;20212;-75
2023/07/12 01:58:43;;;;;;;4.80;1.60;;;;;;;18.97;100.00;100504.91;4931654;29;20059;-72
2023/07/12 02:01:09;;;;;;;5.43;1.92;;;;;;;19.12;100.00;100512.13;4946712;29;20055;-75
2023/07/12 02:03:36;;;;;;;6.55;1.88;;;;;;;19.08;100.00;100522.81;4930519;29;20075;-75
2023/07/12 02:06:03;;;;;;;4.57;1.40;;;;;;;19.12;100.00;100519.81;4928960;29;20541;-76
2023/07/12 02:08:30;;;;;;;5.53;1.60;;;;;;;19.15;100.00;100518.84;4930937;29;20071;-74
2023/07/12 02:10:56;;;;;;;6.13;1.80;;;;;;;19.28;100.00;100508.84;4930737;29;20078;-74
2023/07/12 02:13:23;;;;;;;4.25;1.60;;;;;;;19.26;100.00;100504.97;4931558;29;20115;-74
2023/07/12 02:15:50;;;;;;;5.07;2.15;;;;;;;19.30;100.00;100508.38;4929577;29;20081;-75
2023/07/12 02:18:18;;;;;;;7.97;2.17;;;;;;;19.37;100.00;100514.44;4929147;29;20043;-76
2023/07/12 02:20:44;;;;;;;7.20;1.70;;;;;;;19.36;100.00;100520.56;4930445;29;20048;-76
2023/07/12 02:23:11;;;;;;;6.97;1.90;;;;;;;19.40;100.00;100513.47;4930102;29;20683;-76
2023/07/12 02:25:39;;;;;;;6.85;1.80;;;;;;;19.45;100.00;100515.59;4936849;29;20135;-77
2023/07/12 02:28:06;;;;;;;4.30;2.03;;;;;;;19.47;100.00;100493.34;4929851;29;20384;-77
2023/07/12 02:30:33;;;;;;;4.43;1.73;;;;;;;19.51;100.00;100501.66;4930619;29;20470;-76
2023/07/12 02:33:00;;;;;;;4.70;1.48;;;;;;;19.44;100.00;100504.81;4929983;29;20506;-76
2023/07/12 02:35:29;;;;;;;4.18;1.70;;;;;;;19.53;100.00;100501.94;4930414;29;20043;-76
2023/07/12 02:37:57;;;;;;;5.32;1.75;;;;;;;19.62;100.00;100490.59;4921883;29;20092;-75
2023/07/12 02:40:25;;;;;;;7.85;1.70;;;;;;;19.50;100.00;100500.88;4930251;29;20055;-76
2023/07/12 02:42:53;;;;;;;5.97;1.88;;;;;;;19.48;100.00;100520.31;4929145;29;20253;-74
2023/07/12 02:45:20;;;;;;;7.00;1.77;;;;;;;19.45;100.00;100532.53;4929710;29;20059;-75
2023/07/12 02:47:46;;;;;;;3.60;1.23;;;;;;;19.18;100.00;100527.09;4928586;29;20062;-76
2023/07/12 02:50:13;;;;;;;13.20;2.70;;;;;;;19.26;100.00;100535.97;4930321;29;20130;-75
2023/07/12 02:52:40;;;;;;;7.20;1.92;;;;;;;19.06;100.00;100549.91;4929598;29;20056;-74
2023/07/12 02:55:07;;;;;;;3.90;1.88;;;;;;;18.94;100.00;100577.03;4927991;29;20051;-71
2023/07/12 02:57:33;;;;;;;6.25;1.60;;;;;;;18.56;100.00;100582.53;4929214;29;20135;-74
2023/07/12 03:00:01;;;;;;;8.35;2.28;;;;;;;18.56;100.00;100573.31;4928218;29;20093;-73
2023/07/12 03:02:30;;;;;;;3.47;1.98;;;;;;;18.33;100.00;100610.59;4928197;29;20085;-73
2023/07/12 03:04:56;;;;;;;3.67;1.38;;;;;;;18.00;100.00;100618.97;4930438;29;20063;-73
2023/07/12 03:07:23;;;;;;;8.75;2.30;;;;;;;17.96;100.00;100637.25;4928229;29;20052;-74
2023/07/12 03:09:57;;;;;;;6.28;1.60;;;;;;;17.72;100.00;100605.34;4928991;29;20055;-73
2023/07/12 03:12:24;;;;;;;9.80;2.58;;;;;;;17.78;100.00;100592.25;4927421;29;20052;-72
2023/07/12 03:14:52;;;;;;;8.07;2.65;;;;;;;17.55;100.00;100623.78;4929641;29;20063;-71
2023/07/12 03:17:19;;;;;;;7.10;1.52;;;;;;;17.47;100.00;100665.47;4929624;29;20052;-74
2023/07/12 03:19:46;;;;;;;11.25;2.33;;;;;;;17.38;100.00;100659.06;4927989;29;20048;-71
2023/07/12 03:22:13;;;;;;;14.02;2.97;;;;;;;17.48;100.00;100638.16;4930893;29;20570;-73
2023/07/12 03:24:39;;;;;;;8.90;2.63;;;;;;;17.43;100.00;100634.69;4929132;29;20139;-71
2023/07/12 03:27:06;;;;;;;16.05;2.42;;;;;;;17.26;100.00;100661.50;4928888;29;20151;-71
2023/07/12 03:29:33;;;;;;;6.50;2.15;;;;;;;17.09;100.00;100670.66;4930812;29;20146;-74
2023/07/12 03:31:59;;;;;;;5.97;1.75;;;;;;;16.95;100.00;100680.41;4929578;29;20051;-72
2023/07/12 03:34:26;;;;;;;5.60;2.10;;;;;;;16.93;100.00;100715.81;4928556;29;20102;-73
2023/07/12 03:36:52;;;;;;;13.73;3.60;;;;;;;16.89;100.00;100704.75;4927166;29;20086;-73
2023/07/12 03:39:19;;;;;;;11.70;2.95;;;;;;;16.94;100.00;100678.84;4929462;29;20467;-71
2023/07/12 03:41:45;;;;;;;7.35;2.85;;;;;;;16.83;100.00;100672.88;4929618;29;20060;-73
2023/07/12 03:44:12;;;;;;;7.65;2.72;;;;;;;16.77;100.00;100671.91;4930876;29;20091;-74
2023/07/12 03:46:38;;;;;;;9.38;2.58;;;;;;;16.73;100.00;100654.44;4927829;29;20048;-70
2023/07/12 03:49:05;;;;;;;9.73;2.83;;;;;;;16.47;100.00;100622.19;4929267;29;20466;-74
2023/07/12 03:51:31;;;;;;;12.48;3.50;;;;;;;16.51;100.00;100648.06;4927486;29;20143;-73
2023/07/12 03:53:58;;;;;;;12.43;3.15;;;;;;;16.52;100.00;100660.09;4929341;29;20123;-74
2023/07/12 03:56:25;;;;;;;7.43;2.88;;;;;;;16.46;100.00;100650.69;4939856;29;20056;-73
2023/07/12 03:58:51;;;;;;;11.32;3.25;;;;;;;16.43;100.00;100641.19;4934062;29;20073;-72
2023/07/12 04:01:18;;;;;;;12.80;3.13;;;;;;;16.48;100.00;100631.41;4932381;29;20055;-72
2023/07/12 04:03:46;;;;;;;10.68;3.22;;;;;;;16.40;100.00;100630.88;4933826;29;20048;-72
2023/07/12 04:06:13;;;;;;;11.77;3.55;;;;;;;16.45;100.00;100637.91;4932222;29;20130;-72
2023/07/12 04:08:40;;;;;;;13.77;3.80;;;;;;;16.47;100.00;100627.78;4932445;29;20059;-72
2023/07/12 04:11:07;;;;;;;16.77;5.25;;;;;;;16.50;100.00;100620.47;4932505;29;20051;-74
2023/07/12 04:13:34;;;;;;;13.45;4.47;;;;;;;16.52;100.00;100634.84;4931445;29;20478;-73
2023/07/12 04:16:01;;;;;;;15.30;4.13;;;;;;;16.47;100.00;100633.41;4932950;29;20091;-73
2023/07/12 04:18:29;;;;;;;16.55;4.93;;;;;;;16.50;100.00;100617.66;4932492;29;20043;-72
2023/07/12 04:21:02;;;;;;;11.93;4.97;;;;;;;16.52;100.00;100624.41;4932419;29;20483;-74
2023/07/12 04:23:29;;;;;;;13.00;4.40;;;;;;;16.53;100.00;100633.59;4932574;29;20506;-73
2023/07/12 04:26:00;;;;;;;12.45;4.57;;;;;;;16.47;100.00;100630.59;4931999;29;20079;-73
2023/07/12 04:28:27;;;;;;;15.13;4.63;;;;;;;16.44;100.00;100650.41;4932834;29;20139;-74
2023/07/12 04:30:54;;;;;;;12.23;4.57;;;;;;;16.50;100.00;100679.41;4932308;29;20055;-73
2023/07/12 04:33:23;;;;;;;12.20;4.53;;;;;;;16.45;100.00;100677.19;4931199;29;20056;-73
2023/07/12 04:35:49;;;;;;;17.35;5.68;;;;;;;16.46;100.00;100657.09;4932495;29;20091;-74
2023/07/12 04:38:16;;;;;;;16.02;4.90;;;;;;;16.43;100.00;100663.63;4932199;29;20581;-73
2023/07/12 04:40:42;;;;;;;8.18;2.70;;;;;;;16.38;100.00;100660.63;4932484;29;20075;-73
2023/07/12 04:43:09;;;;;;;7.45;2.83;;;;;;;16.36;100.00;100679.94;4931071;29;20502;-74
2023/07/12 04:45:35;;;;;;;10.20;3.42;;;;;;;16.38;100.00;100655.81;4931944;29;20055;-72
2023/07/12 04:48:02;;;;;;;9.95;3.20;;;;;;;16.35;100.00;100653.94;4931994;29;20051;-73
2023/07/12 04:50:29;;;;;;;13.18;4.32;;;;;;;16.33;100.00;100647.97;4929854;29;20145;-71
2023/07/12 04:52:55;;;;;;;7.47;3.10;;;;;;;16.30;100.00;100664.97;4931531;29;20062;-73
2023/07/12 04:55:26;;;;;;;7.55;2.80;;;;;;;16.29;100.00;100652.94;4931199;29;20511;-72
2023/07/12 04:57:54;;;;;;;6.93;2.80;;;;;;;16.24;100.00;100669.56;4932861;28;20051;-71
2023/07/12 05:00:23;;;;;;;5.75;2.50;;;;;;;16.20;100.00;100675.28;4931932;29;20483;-72
2023/07/12 05:02:51;;;;;;;6.10;2.30;;;;;;;16.17;100.00;100678.25;4934197;29;20079;-72
2023/07/12 05:05:18;;;;;;;8.40;3.40;;;;;;;16.14;100.00;100677.09;4929285;29;20815;-73
2023/07/12 05:07:44;;;;;;;6.53;2.55;;;;;;;15.98;100.00;100676.53;4932120;29;20048;-71
2023/07/12 05:10:11;;;;;;;6.40;1.98;;;;;;;16.13;100.00;100675.56;4931668;29;20080;-72
2023/07/12 05:12:40;;;;;;;7.75;2.67;;;;;;;16.19;100.00;100684.16;4928457;29;20059;-73
2023/07/12 05:15:08;;;;;;;2.05;0.80;;;;;;;16.01;100.00;100678.44;4927023;29;20107;-73
2023/07/12 05:17:36;;;;;;;7.50;2.50;;;;;;;16.10;100.00;100690.47;4928695;29;20055;-72
2023/07/12 05:20:04;;;;;;;2.38;0.95;;;;;;;16.14;100.00;100684.75;4931209;29;20051;-73
2023/07/12 05:22:31;;;;;;;7.95;2.50;;;;;;;16.17;100.00;100689.47;4932620;29;20054;-72
2023/07/12 05:24:59;;;;;;;9.80;3.40;;;;;;;16.20;100.00;100689.31;4942609;29;20070;-72
2023/07/12 05:27:26;;;;;;;8.40;3.15;;;;;;;16.22;100.00;100691.66;4932254;29;20051;-72
2023/07/12 05:29:53;;;;;;;4.80;1.70;;;;;;;16.14;100.00;100685.53;4934593;29;20099;-73
2023/07/12 05:32:20;;;;;;;7.60;2.92;;;;;;;16.23;100.00;100691.22;4930022;29;20825;-73
2023/07/12 05:34:47;;;;;;;7.55;2.30;;;;;;;16.18;100.00;100686.19;4931582;29;20055;-75
2023/07/12 05:37:14;;;;;;;3.22;1.08;;;;;;;16.17;100.00;100689.47;4927201;29;20084;-73
2023/07/12 05:39:41;;;;;;;4.50;1.77;;;;;;;16.16;100.00;100699.88;4930146;29;20414;-75
2023/07/12 05:42:08;;;;;;;9.13;2.60;;;;;;;16.27;100.00;100697.50;4933135;29;20059;-72
2023/07/12 05:44:34;;;;;;;8.90;2.92;;;;;;;16.33;100.00;100708.91;4931713;29;20475;-74
2023/07/12 05:47:01;;;;;;;9.82;2.90;;;;;;;16.33;100.00;100708.91;4931173;29;20079;-72
2023/07/12 05:49:28;;;;;;;9.98;2.97;;;;;;;16.33;100.00;100708.91;4929429;29;20047;-72
2023/07/12 05:51:54;;;;;;;5.45;1.40;;;;;;;16.19;100.00;100731.84;4928597;29;20464;-72
2023/07/12 05:54:21;;;;;;;8.35;2.95;;;;;;;16.27;100.00;100710.75;4930602;29;20059;-72
2023/07/12 05:56:48;;;;;;;5.03;1.73;;;;;;;16.15;100.00;100712.34;4930259;29;20056;-73
2023/07/12 05:59:14;;;;;;;10.75;2.83;;;;;;;16.36;100.00;100724.84;4927841;29;20044;-72
2023/07/12 06:01:41;;;;;;;3.40;1.15;;;;;;;16.24;100.00;100726.44;4927864;29;20059;-72
2023/07/12 06:04:10;;;;;;;8.43;2.78;;;;;;;16.42;100.00;100737.03;4931559;29;20087;-74
2023/07/12 06:06:38;;;;;;;7.45;2.72;;;;;;;16.32;100.00;100738.22;4943875;28;20508;-73
2023/07/12 06:09:05;;;;;;;6.32;1.58;;;;;;;16.32;100.00;100744.63;4930106;29;20071;-72
2023/07/12 06:11:32;;;;;;;7.32;2.45;;;;;;;16.35;100.00;100749.31;4930352;29;20052;-71
2023/07/12 06:13:59;;;;;;;8.48;2.83;;;;;;;16.29;100.00;100751.13;4931748;29;20122;-72
2023/07/12 06:16:26;;;;;;;5.75;1.95;;;;;;;16.25;100.00;100742.06;4931757;29;20126;-73
2023/07/12 06:18:53;;;;;;;4.35;1.27;;;;;;;16.35;100.00;100757.72;4927979;29;20103;-72
2023/07/12 06:21:19;;;;;;;4.80;2.20;;;;;;;16.18;100.00;100747.91;4930233;29;20058;-75
2023/07/12 06:23:46;;;;;;;5.32;2.28;;;;;;;16.19;100.00;100763.50;4930351;29;20544;-73
2023/07/12 06:26:13;;;;;;;5.20;2.70;;;;;;;16.13;100.00;100759.69;4930371;29;20075;-68
2023/07/12 06:28:39;;;;;;;6.00;3.20;;;;;;;16.20;100.00;100764.28;4926754;29;20071;-75
2023/07/12 06:31:06;;;;;;;13.50;5.97;;;;;;;16.33;100.00;100765.81;4930022;29;20068;-74
2023/07/12 06:33:33;;;;;;;13.60;5.30;;;;;;;16.28;100.00;100772.03;4931165;29;20079;-73
2023/07/12 06:36:00;;;;;;;16.70;6.25;;;;;;;16.32;100.00;100761.44;4929970;29;20060;-73
2023/07/12 06:38:27;;;;;;;17.85;8.48;;;;;;;16.43;100.00;100764.66;4929160;29;20055;-71
2023/07/12 06:40:54;;;;;;;17.95;6.80;;;;;;;16.35;100.00;100768.97;4929224;29;20052;-73
2023/07/12 06:43:22;;;;;;;17.23;7.53;;;;;;;16.57;100.00;100763.31;4928239;29;20076;-70
2023/07/12 06:45:49;;;;;;;15.82;6.78;;;;;;;16.61;100.00;100766.81;4924842;29;20056;-71
2023/07/12 06:48:16;;;;;;;15.27;6.10;;;;;;;16.62;100.00;100766.34;4927672;29;20087;-71
2023/07/12 06:50:42;;;;;;;17.80;8.05;;;;;;;16.61;100.00;100753.53;4929370;29;20106;-73
2023/07/12 06:53:09;;;;;;;17.58;7.25;;;;;;;16.82;100.00;100766.78;4929543;29;20110;-73
2023/07/12 06:55:41;;;;;;;9.70;2.25;;;;;;;16.80;100.00;100766.47;4928749;29;20064;-73
2023/07/12 06:58:08;;;;;;;12.70;4.03;;;;;;;16.67;100.00;100767.75;4928306;29;20052;-72
2023/07/12 07:00:34;;;;;;;9.23;3.10;;;;;;;16.74;100.00;100768.28;4923266;29;20055;-70
2023/07/12 07:03:01;;;;;;;8.57;2.65;;;;;;;16.73;100.00;100754.72;4925405;29;20052;-71
2023/07/12 07:05:27;;;;;;;7.40;3.55;;;;;;;16.82;100.00;100752.75;4929607;29;20111;-75
2023/07/12 07:07:54;;;;;;;9.25;3.03;;;;;;;16.67;100.00;100742.50;4929688;29;20071;-78
2023/07/12 07:10:21;;;;;;;8.95;3.95;;;;;;;16.90;100.00;100739.19;4930104;29;20900;-78
2023/07/12 07:12:47;;;;;;;10.15;3.35;;;;;;;16.87;100.00;100728.88;4933039;29;20094;-78
2023/07/12 07:15:14;;;;;;;6.70;2.00;;;;;;;16.88;100.00;100745.28;4935175;29;20063;-77
2023/07/12 07:17:41;;;;;;;9.52;3.78;;;;;;;17.04;100.00;100735.84;4947573;29;20585;-79
2023/07/12 07:20:08;;;;;;;4.65;1.70;;;;;;;16.90;100.00;100737.19;4927893;29;20171;-78
2023/07/12 07:22:35;;;;;;;8.57;2.92;;;;;;;17.08;100.00;100739.31;4929807;29;20098;-80
2023/07/12 07:25:02;;;;;;;11.27;3.85;;;;;;;17.33;100.00;100737.09;4933100;29;20119;-79
2023/07/12 07:27:46;;;;;;;9.53;2.97;;;;;;;17.42;100.00;100739.91;4926434;29;20052;-77
2023/07/12 07:30:13;;;;;;;9.70;3.35;;;;;;;17.38;100.00;100739.28;4933348;29;20051;-78
2023/07/12 07:32:40;;;;;;;9.45;3.95;;;;;;;17.34;100.00;100738.66;4934168;29;20111;-79
2023/07/12 07:35:07;;;;;;;6.15;2.38;;;;;;;17.56;100.00;100743.41;4936333;29;20051;-77
2023/07/12 07:37:34;;;;;;;7.32;2.15;;;;;;;17.71;100.00;100739.53;4937814;29;20052;-78
2023/07/12 07:40:00;;;;;;;11.43;2.85;;;;;;;17.62;100.00;100736.69;4934446;29;20075;-78
2023/07/12 07:42:27;;;;;;;10.60;3.00;;;;;;;17.70;100.00;100742.78;4937375;29;20138;-78
2023/07/12 07:44:54;;;;;;;4.35;1.88;;;;;;;17.86;100.00;100734.09;4935150;29;20707;-79
2023/07/12 07:47:21;;;;;;;10.90;3.22;;;;;;;17.94;100.00;100736.16;4934296;29;20573;-79
2023/07/12 07:49:48;;;;;;;11.27;3.33;;;;;;;17.91;100.00;100737.06;4932783;29;20047;-78
2023/07/12 07:52:14;;;;;;;7.93;2.78;;;;;;;17.80;100.00;100747.19;4939082;29;20102;-80
2023/07/12 07:54:41;;;;;;;7.28;2.95;;;;;;;17.82;100.00;100736.28;4938835;29;20131;-78
2023/07/12 07:57:08;;;;;;;9.68;3.20;;;;;;;18.15;100.00;100732.41;4935901;29;20081;-77
2023/07/12 07:59:35;;;;;;;10.32;3.33;;;;;;;18.25;100.00;100742.41;4946465;29;20051;-77
2023/07/12 08:02:01;;;;;;;6.47;2.90;;;;;;;18.16;100.00;100742.41;4933920;29;20048;-81
2023/07/12 08:04:30;;;;;;;6.72;2.42;;;;;;;18.20;100.00;100742.25;4933117;29;20082;-77
2023/07/12 08:06:57;;;;;;;11.00;3.38;;;;;;;18.13;100.00;100737.72;4945522;28;20055;-76
2023/07/12 08:09:24;;;;;;;6.75;1.98;;;;;;;17.89;100.00;100741.59;4933243;29;20059;-77
2023/07/12 08:11:50;;;;;;;7.60;2.53;;;;;;;18.06;100.00;100742.88;4929259;29;20055;-75
2023/07/12 08:14:18;;;;;;;7.15;2.55;;;;;;;18.03;100.00;100741.00;4932495;29;20051;-77
2023/07/12 08:16:45;;;;;;;11.70;3.28;;;;;;;18.05;100.00;100738.47;4930767;29;20059;-76
2023/07/12 08:19:12;;;;;;;2.63;1.42;;;;;;;17.93;100.00;100750.66;4932068;29;20130;-75
2023/07/12 08:21:44;;;;;;;10.13;2.92;;;;;;;18.05;100.00;100747.72;4945878;29;21392;-75
2023/07/12 08:24:11;;;;;;;8.10;2.63;;;;;;;18.09;100.00;100745.53;4931581;29;20051;-77
2023/07/12 08:26:37;;;;;;;3.85;1.55;;;;;;;18.02;100.00;100736.63;4928607;29;20130;-77
2023/07/12 08:29:09;;;;;;;6.20;2.08;;;;;;;18.33;100.00;100754.13;4928277;29;20055;-75
2023/07/12 08:31:35;;;;;;;11.15;2.33;;;;;;;18.23;100.00;100741.31;4932688;29;20055;-79
2023/07/12 08:34:02;;;;;;;15.07;1.20;;;;;;;18.51;100.00;100743.66;4937051;29;20507;-76
2023/07/12 08:36:28;;;;;;;8.93;2.70;;;;;;;18.21;100.00;100760.69;4931912;29;20052;-76
2023/07/12 08:38:55;;;;;;;7.60;2.33;;;;;;;18.29;100.00;100739.44;4931196;29;20079;-75
2023/07/12 08:41:24;;;;;;;3.42;1.83;;;;;;;18.50;100.00;100744.88;4931648;29;20467;-77
2023/07/12 08:43:52;;;;;;;8.77;2.13;;;;;;;18.57;100.00;100744.56;4925303;29;20052;-76
2023/07/12 08:46:22;;;;;;;9.52;3.30;;;;;;;18.91;100.00;100751.88;4931549;29;20059;-76
2023/07/12 08:49:00;;;;;;;6.90;1.48;;;;;;;18.84;100.00;100755.03;4931607;29;20051;-76
2023/07/12 08:51:32;;;;;;;10.05;2.85;;;;;;;18.80;100.00;100754.41;4928847;29;20052;-79
2023/07/12 08:53:59;;;;;;;7.07;1.52;;;;;;;18.74;100.00;100753.47;4932560;29;20055;-76
2023/07/12 08:56:26;;;;;;;9.20;2.60;;;;;;;18.76;100.00;100746.13;4928719;29;20087;-79
2023/07/12 08:58:54;;;;;;;9.85;2.95;;;;;;;19.00;100.00;100749.03;4924728;29;20110;-73
2023/07/12 09:01:42;;;;;;;4.55;2.28;;;;;;;19.08;100.00;100753.06;4908750;29;20056;-79
2023/07/12 09:04:24;;;;;;;8.02;3.47;;;;;;;19.13;100.00;100763.69;4929317;29;20055;-78
2023/07/12 09:06:54;;;;;;;13.55;3.88;;;;;;;19.12;100.00;100760.09;4931164;29;20062;-80
2023/07/12 09:09:21;;;;;;;2.33;1.38;;;;;;;19.15;100.00;100761.97;4931118;29;20091;-77
2023/07/12 09:11:47;;;;;;;10.27;3.22;;;;;;;19.39;100.00;100754.34;4929074;29;20162;-77
2023/07/12 09:14:20;;;;;;;9.27;2.72;;;;;;;19.51;100.00;100756.19;4928528;29;20105;-75
2023/07/12 09:16:58;;;;;;;7.63;2.92;;;;;;;19.78;100.00;100763.72;4929659;29;20074;-76
2023/07/12 09:19:30;;;;;;;7.78;2.92;;;;;;;19.92;100.00;100759.38;4928808;29;20122;-78
2023/07/12 09:22:09;;;;;;;4.38;1.40;;;;;;;19.86;100.00;100762.09;4932982;29;20059;-78
2023/07/12 09:24:42;;;;;;;8.75;2.30;;;;;;;19.54;100.00;100765.72;4924748;29;20075;-76
2023/07/12 09:27:15;;;;;;;4.07;1.48;;;;;;;19.55;100.00;100770.88;4933988;29;20123;-77
2023/07/12 09:29:43;;;;;;;12.55;3.22;;;;;;;19.91;100.00;100766.31;4926145;29;20067;-74
2023/07/12 09:32:37;;;;;;;11.02;3.80;;;;;;;19.82;100.00;100772.00;4929486;29;20454;-75
2023/07/12 09:35:27;;;;;;;7.72;3.17;;;;;;;19.88;100.00;100778.56;4929274;29;20143;-77
2023/07/12 09:37:59;;;;;;;9.45;3.20;;;;;;;19.84;100.00;100784.34;4925751;29;20461;-76
2023/07/12 09:40:29;;;;;;;3.17;1.67;;;;;;;19.72;100.00;100774.09;4929863;29;20062;-78
2023/07/12 09:42:57;;;;;;;10.10;2.72;;;;;;;19.74;100.00;100774.38;4928177;29;20051;-75
2023/07/12 09:45:32;;;;;;;7.63;1.77;;;;;;;19.75;100.00;100784.44;4930152;29;20059;-76
2023/07/12 09:48:50;;;;;;;13.40;3.03;;;;;;;19.80;100.00;100780.94;4925178;29;20058;-75
2023/07/12 09:51:28;;;;;;;12.15;2.97;;;;;;;19.87;100.00;100789.03;4850301;29;20048;-76
2023/07/12 09:54:26;;;;;;;4.45;1.67;;;;;;;19.74;100.00;100794.91;4925464;29;20052;-76
2023/07/12 09:56:55;;;;;;;3.08;1.25;;;;;;;19.92;100.00;100777.13;4928895;29;20720;-75
2023/07/12 09:59:49;;;;;;;7.53;1.73;;;;;;;20.09;100.00;100785.91;4929094;29;20090;-76
2023/07/12 10:02:40;;;;;;;10.00;2.50;;;;;;;20.19;100.00;100785.38;4942234;29;20506;-76
2023/07/12 10:05:20;;;;;;;10.75;2.67;;;;;;;20.43;100.00;100797.44;4926291;29;20047;-75
2023/07/12 10:07:55;;;;;;;9.55;2.60;;;;;;;20.64;100.00;100796.31;4924864;29;20071;-78
2023/07/12 10:10:30;;;;;;;9.18;2.60;;;;;;;20.59;100.00;100796.97;4927840;29;20492;-76
2023/07/12 10:13:15;;;;;;;6.32;2.28;;;;;;;20.36;100.00;100800.66;4927001;29;20059;-76
2023/07/12 10:15:44;;;;;;;9.18;2.67;;;;;;;20.59;100.00;100787.75;4925788;29;20047;-76
2023/07/12 10:18:18;;;;;;;9.57;2.50;;;;;;;20.69;100.00;100789.97;4923012;28;20629;-76
2023/07/12 10:20:47;;;;;;;11.50;2.57;;;;;;;20.78;100.00;100789.91;4925016;29;20162;-75
2023/07/12 10:23:16;;;;;;;10.20;2.42;;;;;;;20.34;100.00;100796.72;4926773;29;20051;-81
2023/07/12 10:25:48;;;;;;;6.53;2.25;;;;;;;20.39;100.00;100805.31;4929384;29;20226;-77
2023/07/12 10:28:25;;;;;;;3.60;1.13;;;;;;;20.35;100.00;100806.78;4925971;29;20438;-75
2023/07/12 10:30:56;;;;;;;1.35;0.95;;;;;;;20.31;100.00;100809.78;4940639;29;20047;-80
2023/07/12 10:33:39;;;;;;;9.82;2.28;;;;;;;20.58;100.00;100806.72;4905797;29;20043;-74
2023/07/12 10:36:11;;;;;;;5.78;2.40;;;;;;;20.57;100.00;100807.19;4906446;29;20059;-77
2023/07/12 10:38:38;;;;;;;3.13;0.98;;;;;;;20.49;100.00;100806.03;4910744;29;20047;-80
2023/07/12 10:41:23;;;;;;;7.82;2.35;;;;;;;20.76;100.00;100802.97;4919497;29;20047;-78
2023/07/12 10:44:08;;;;;;;7.38;2.70;;;;;;;21.04;100.00;100809.91;4928228;29;20051;-75
2023/07/12 10:46:38;;;;;;;11.50;3.53;;;;;;;21.20;100.00;100815.06;4924428;29;20062;-76
2023/07/12 10:49:17;;;;;;;8.43;2.45;;;;;;;20.97;100.00;100813.91;4939320;29;20064;-78
2023/07/12 10:52:32;;;;;;;12.32;2.35;;;;;;;20.96;100.00;100814.41;4924038;29;20122;-74
2023/07/12 10:55:01;;;;;;;9.32;2.25;;;;;;;21.12;100.00;100819.53;4867470;29;20053;-75
2023/07/12 10:57:39;;;;;;;8.35;2.00;;;;;;;21.20;100.00;100818.66;4856457;29;20076;-75
2023/07/12 11:00:30;;;;;;;9.27;2.60;;;;;;;21.38;100.00;100809.19;4864969;29;20053;-76
2023/07/12 11:03:23;;;;;;;6.80;1.45;;;;;;;20.99;100.00;100810.59;4866127;29;20180;-76
2023/07/12 11:05:55;;;;;;;6.40;1.80;;;;;;;21.32;100.00;100813.97;4861561;29;20064;-76
2023/07/12 11:08:30;;;;;;;7.20;1.95;;;;;;;21.65;100.00;100820.19;4873337;29;20097;-77
2023/07/12 11:11:20;;;;;;;8.10;2.08;;;;;;;21.61;100.00;100819.59;4863305;29;20109;-78
2023/07/12 11:13:53;;;;;;;9.15;2.28;;;;;;;21.71;100.00;100816.16;4816197;29;20057;-75
2023/07/12 11:16:20;;;;;;;7.47;2.33;;;;;;;21.90;100.00;100817.50;4863128;29;20467;-75
2023/07/12 11:18:57;;;;;;;12.18;2.78;;;;;;;22.06;100.00;100813.31;4862266;29;20068;-75
2023/07/12 11:21:42;;;;;;;7.45;1.58;;;;;;;21.63;100.00;100826.34;4859034;29;20049;-77
2023/07/12 11:24:30;;;;;;;9.00;2.67;;;;;;;22.33;100.00;100824.25;4868585;29;20045;-78
2023/07/12 11:27:00;;;;;;;3.30;1.00;;;;;;;22.02;100.00;100821.25;4933330;29;20108;-74